Marshall Foss — WDB9762 — position and weather

sailwx.info

Track history (hours):
 
Tides and Currents Weather Stations Pressure Air Temp Water Temp Dewpoint Dewpoint Depression Visibility Wind Speed Wind Dir Waves Ship Positions

Marshall Foss

Owner: Foss Maritime Company, Seattle, WA. More information available from US FCC via Universal Licensing System and Coast Guard Vessel Documentation Center.

Last reported at 2017-Dec-18 06:49 UTC. Time now 2017-Dec-18 07:15 UTC.
Position N 48°08' W 123°27'.

Length 27 m; draft 5.4 m.

Type: Tug. MMSI: 366982320.

Date/timePositionNaut miles runAvg speedWind from/ knotsBaromVisibWave heightAir tempDewpointWater temp
2017-Dec-18 06:49N 48°08' W 123°27'0 0.0
2017-Dec-18 06:19N 48°08' W 123°27'0 0.0
2017-Dec-18 05:55N 48°08' W 123°27'0 0.0
2017-Dec-18 05:25N 48°08' W 123°27'0 0.0
2017-Dec-18 04:49N 48°08' W 123°27'1 2.1
2017-Dec-18 04:30N 48°08' W 123°26'1 1.4
2017-Dec-18 04:00N 48°08' W 123°27'1 1.4
2017-Dec-18 03:30N 48°08' W 123°26'2 3.3
2017-Dec-18 03:00N 48°09' W 123°24'2 3.9
2017-Dec-18 02:30N 48°10' W 123°26'2 4.7
2017-Dec-18 02:00N 48°08' W 123°24'2 3.3
2017-Dec-18 01:28N 48°08' W 123°27'0 0.0
2017-Dec-18 00:52N 48°08' W 123°27'0 0.0
2017-Dec-18 00:28N 48°08' W 123°27'0 0.0
2017-Dec-17 23:59N 48°08' W 123°27'3 5.4
2017-Dec-17 23:30N 48°09' W 123°23'5 9.8
2017-Dec-17 23:00N 48°11' W 123°17'5 9.9
2017-Dec-17 22:30N 48°14' W 123°11'5 9.7
2017-Dec-17 21:59N 48°18' W 123°05'5 9.5
2017-Dec-17 21:25N 48°21' W 122°58'4 9.1
2017-Dec-17 21:00N 48°23' W 122°53'6 9.6
2017-Dec-17 20:24N 48°26' W 122°47'5 9.7
2017-Dec-17 19:56N 48°30' W 122°45'410.3
2017-Dec-17 19:30N 48°35' W 122°46'510.9
2017-Dec-17 19:01N 48°40' W 122°43'8 2.9
2017-Dec-17 16:25N 48°47' W 122°45'410.2
2017-Dec-17 16:00N 48°43' W 122°45'5 9.4
2017-Dec-17 15:30N 48°39' W 122°43'5 9.0
2017-Dec-17 15:00N 48°34' W 122°45'510.4
2017-Dec-17 14:29N 48°29' W 122°44'2010.6
2017-Dec-17 12:34N 48°15' W 123°07'1 9.1
2017-Dec-17 12:31N 48°15' W 123°06'1 2.4
2017-Dec-17 11:56N 48°15' W 123°04'26 8.5
2017-Dec-17 08:50N 47°58' W 122°34'3 9.8
2017-Dec-17 08:30N 47°56' W 122°30'5 9.8
2017-Dec-17 08:00N 47°52' W 122°27'510.4
2017-Dec-17 07:30N 47°47' W 122°26'510.2
2017-Dec-17 07:00N 47°42' W 122°27'4 8.9
2017-Dec-17 06:30N 47°38' W 122°24'1 1.5
2017-Dec-17 06:00N 47°38' W 122°23'0 0.0
2017-Dec-17 05:30N 47°38' W 122°23'0 0.0
2017-Dec-17 05:00N 47°38' W 122°23'0 0.0
2017-Dec-17 04:30N 47°38' W 122°23'0 0.0
2017-Dec-17 04:00N 47°38' W 122°23'0 0.0
2017-Dec-17 03:31N 47°38' W 122°23'0 0.0
2017-Dec-17 03:00N 47°38' W 122°23'0 0.0
2017-Dec-17 02:30N 47°38' W 122°23'0 0.0
2017-Dec-17 02:00N 47°38' W 122°23'0 0.0
2017-Dec-17 01:30N 47°38' W 122°23'0 0.0
2017-Dec-17 01:00N 47°38' W 122°23'0 0.0
2017-Dec-17 00:30N 47°38' W 122°23'0 0.0
2017-Dec-17 00:00N 47°38' W 122°23'0 0.2
2017-Dec-16 23:30N 47°38' W 122°23'3 6.5
2017-Dec-16 23:00N 47°35' W 122°21'0 0.8
2017-Dec-16 22:30N 47°35' W 122°21'1 2.6
2017-Dec-16 22:01N 47°37' W 122°21'0 0.2
2017-Dec-16 21:31N 47°37' W 122°22'2 4.4
2017-Dec-16 21:00N 47°34' W 122°21'1 1.2
2017-Dec-16 20:30N 47°34' W 122°21'0 0.5
2017-Dec-16 20:00N 47°34' W 122°21'1 1.7
2017-Dec-16 19:30N 47°35' W 122°22'1 2.3
2017-Dec-16 19:00N 47°36' W 122°21'0 0.2
2017-Dec-16 18:30N 47°36' W 122°21'1 1.8
2017-Dec-16 18:00N 47°35' W 122°22'0 0.0
2017-Dec-16 17:30N 47°35' W 122°22'0 0.1
2017-Dec-16 16:59N 47°35' W 122°23'0 0.2
2017-Dec-16 16:30N 47°36' W 122°23'4 8.7
2017-Dec-16 16:00N 47°39' W 122°27'5 9.2
2017-Dec-16 15:30N 47°43' W 122°28'5 9.8
2017-Dec-16 15:00N 47°48' W 122°28'510.0
2017-Dec-16 14:30N 47°53' W 122°30'5 9.3
2017-Dec-16 14:00N 47°57' W 122°34'31 8.3
2017-Dec-16 10:17N 48°10' W 123°16'310.4
2017-Dec-16 09:58N 48°09' W 123°21'2 5.1
2017-Dec-16 09:30N 48°08' W 123°24'1 1.9
2017-Dec-16 09:00N 48°08' W 123°23'1 2.8
2017-Dec-16 08:30N 48°09' W 123°23'1 2.1
2017-Dec-16 08:00N 48°08' W 123°24'1 1.2
2017-Dec-16 07:30N 48°08' W 123°24'1 2.8
2017-Dec-16 07:00N 48°08' W 123°26'1 1.2
2017-Dec-16 06:30N 48°08' W 123°26'0 0.0
2017-Dec-16 06:00N 48°08' W 123°26'0 0.0
2017-Dec-16 05:30N 48°08' W 123°26'0 0.0
2017-Dec-16 04:55N 48°08' W 123°26'0 0.0
2017-Dec-16 04:30N 48°08' W 123°26'0 0.0
2017-Dec-16 04:00N 48°08' W 123°26'0 0.0
2017-Dec-16 03:29N 48°08' W 123°26'0 0.0
2017-Dec-16 03:00N 48°08' W 123°26'0 0.0
2017-Dec-16 02:30N 48°08' W 123°26'0 0.0
2017-Dec-16 02:00N 48°08' W 123°26'0 0.0
2017-Dec-16 01:28N 48°08' W 123°26'0 0.0
2017-Dec-16 01:00N 48°08' W 123°26'0 0.0
2017-Dec-16 00:30N 48°08' W 123°26'0 0.0
2017-Dec-16 00:00N 48°08' W 123°26'0 0.0
2017-Dec-15 23:30N 48°08' W 123°26'0 0.0
2017-Dec-15 23:00N 48°08' W 123°26'0 0.0
2017-Dec-15 22:30N 48°08' W 123°26'0 0.0
2017-Dec-15 22:00N 48°08' W 123°26'0 0.0
2017-Dec-15 21:30N 48°08' W 123°26'0 0.0
2017-Dec-15 21:00N 48°08' W 123°26'3 6.9
2017-Dec-15 20:30N 48°09' W 123°22'5 9.4
2017-Dec-15 20:00N 48°12' W 123°16'5 9.8
2017-Dec-15 19:30N 48°15' W 123°11'510.1
2017-Dec-15 19:00N 48°18' W 123°05'811.8
2017-Dec-15 18:18N 48°22' W 122°54'311.6
2017-Dec-15 18:00N 48°24' W 122°50'5 9.0
2017-Dec-15 17:30N 48°28' W 122°45'5 9.3
2017-Dec-15 17:00N 48°31' W 122°41'4 8.4
2017-Dec-15 16:30N 48°31' W 122°34'0 0.8
2017-Dec-15 16:00N 48°31' W 122°34'1 1.4
2017-Dec-15 15:30N 48°31' W 122°35'1 2.2
2017-Dec-15 15:00N 48°31' W 122°37'0 0.0
2017-Dec-15 14:25N 48°31' W 122°37'0 0.0
2017-Dec-15 13:55N 48°31' W 122°37'0 0.0
2017-Dec-15 13:25N 48°31' W 122°37'0 0.0
2017-Dec-15 12:55N 48°31' W 122°37'0 0.2
2017-Dec-15 12:30N 48°31' W 122°37'1 1.9
2017-Dec-15 12:00N 48°31' W 122°35'1 1.3
2017-Dec-15 11:30N 48°31' W 122°35'0 0.9
2017-Dec-15 11:00N 48°31' W 122°35'1 1.7
2017-Dec-15 10:23N 48°31' W 122°37'0 0.0
2017-Dec-15 09:59N 48°31' W 122°37'0 0.0
2017-Dec-15 09:29N 48°31' W 122°37'0 0.0
2017-Dec-15 08:59N 48°31' W 122°37'0 0.0
2017-Dec-15 08:23N 48°31' W 122°37'0 0.0
2017-Dec-15 07:59N 48°31' W 122°37'0 0.0
2017-Dec-15 07:29N 48°31' W 122°37'0 0.0
2017-Dec-15 06:59N 48°31' W 122°37'0 0.0
2017-Dec-15 06:29N 48°31' W 122°37'0 0.0
2017-Dec-15 05:59N 48°31' W 122°37'0 0.0
2017-Dec-15 05:29N 48°31' W 122°37'0 0.0
2017-Dec-15 04:53N 48°31' W 122°37'0 0.0
2017-Dec-15 04:29N 48°31' W 122°37'0 0.0
2017-Dec-15 03:59N 48°31' W 122°37'0 0.0
2017-Dec-15 02:29N 48°31' W 122°37'0 0.0
2017-Dec-15 00:59N 48°31' W 122°37'0 0.0
2017-Dec-15 00:29N 48°31' W 122°37'0 0.0
2017-Dec-14 18:23N 48°31' W 122°37'0 0.0
2017-Dec-14 17:59N 48°31' W 122°37'0 0.2
2017-Dec-14 17:31N 48°31' W 122°37'1 3.0
2017-Dec-14 17:00N 48°31' W 122°35'0 0.2
2017-Dec-14 16:30N 48°31' W 122°35'0 0.4
2017-Dec-14 16:00N 48°31' W 122°34'2 1.8
2017-Dec-14 15:00N 48°31' W 122°37'0 0.7
2017-Dec-14 14:31N 48°31' W 122°37'3 6.7
2017-Dec-14 14:00N 48°31' W 122°42'5 9.2
2017-Dec-14 13:30N 48°26' W 122°44'510.2
2017-Dec-14 13:00N 48°21' W 122°45'810.3
2017-Dec-14 12:15N 48°14' W 122°48'1810.1
2017-Dec-14 10:32N 47°59' W 122°35'1 9.9
2017-Dec-14 10:26N 47°58' W 122°34'410.4
2017-Dec-14 10:00N 47°54' W 122°30'510.5
2017-Dec-14 09:30N 47°50' W 122°27'510.1
2017-Dec-14 09:00N 47°45' W 122°26'510.2
2017-Dec-14 08:30N 47°39' W 122°27'3 6.7
2017-Dec-14 08:00N 47°38' W 122°23'0 0.1
2017-Dec-14 07:31N 47°38' W 122°23'0 0.0
2017-Dec-14 07:00N 47°38' W 122°23'0 0.0
2017-Dec-14 06:30N 47°38' W 122°23'0 0.0
2017-Dec-14 06:00N 47°38' W 122°23'0 0.0
2017-Dec-14 05:30N 47°38' W 122°23'0 0.0
2017-Dec-14 05:00N 47°38' W 122°23'0 0.0
2017-Dec-14 04:30N 47°38' W 122°23'0 0.0
2017-Dec-14 04:00N 47°38' W 122°23'0 0.0
2017-Dec-14 03:30N 47°38' W 122°23'0 0.0
2017-Dec-14 03:00N 47°38' W 122°23'0 0.0
2017-Dec-14 02:30N 47°38' W 122°23'1 1.6
2017-Dec-14 02:00N 47°37' W 122°22'2 4.1
2017-Dec-14 01:30N 47°35' W 122°21'0 0.1
2017-Dec-14 01:01N 47°36' W 122°21'1 1.4
2017-Dec-14 00:30N 47°35' W 122°21'0 0.0
2017-Dec-14 00:00N 47°35' W 122°21'0 0.0
2017-Dec-13 23:30N 47°35' W 122°21'0 0.3
2017-Dec-13 23:00N 47°35' W 122°21'1 1.2
2017-Dec-13 22:31N 47°35' W 122°21'0 0.5
2017-Dec-13 22:00N 47°36' W 122°21'1 2.0
2017-Dec-13 21:31N 47°36' W 122°22'1 1.0
2017-Dec-13 21:01N 47°36' W 122°23'2 3.8
2017-Dec-13 20:29N 47°38' W 122°23'0 0.0
2017-Dec-13 19:59N 47°38' W 122°23'0 0.0
2017-Dec-13 19:29N 47°38' W 122°23'0 0.0
2017-Dec-13 18:59N 47°38' W 122°23'0 0.0
2017-Dec-13 18:29N 47°38' W 122°23'0 0.0
2017-Dec-13 17:59N 47°38' W 122°23'0 0.0
2017-Dec-13 17:29N 47°38' W 122°23'0 0.0
2017-Dec-13 17:00N 47°38' W 122°23'0 0.0
2017-Dec-13 16:29N 47°38' W 122°23'0 0.0
2017-Dec-13 16:01N 47°38' W 122°23'0 0.0
2017-Dec-13 15:30N 47°38' W 122°23'0 0.0
2017-Dec-13 15:00N 47°38' W 122°23'0 0.0
2017-Dec-13 14:31N 47°38' W 122°23'0 0.0
2017-Dec-13 14:00N 47°38' W 122°23'0 0.0
2017-Dec-13 13:30N 47°38' W 122°23'0 0.0
2017-Dec-13 13:00N 47°38' W 122°23'0 0.0
2017-Dec-13 12:30N 47°38' W 122°23'0 0.0
2017-Dec-13 12:00N 47°38' W 122°23'0 0.0
2017-Dec-13 11:30N 47°38' W 122°23'0 0.0
2017-Dec-13 11:00N 47°38' W 122°23'0 0.0
2017-Dec-13 10:30N 47°38' W 122°23'0 0.0
2017-Dec-13 10:00N 47°38' W 122°23'0 0.0
2017-Dec-13 09:30N 47°38' W 122°23'0 0.0
2017-Dec-13 09:00N 47°38' W 122°23'0 0.0
2017-Dec-13 08:31N 47°38' W 122°23'1 1.3
2017-Dec-13 08:00N 47°37' W 122°22'2 3.5
2017-Dec-13 07:30N 47°36' W 122°21'1 1.0
2017-Dec-13 07:00N 47°35' W 122°21'0 0.0
2017-Dec-13 06:30N 47°35' W 122°21'3 5.7
2017-Dec-13 06:01N 47°38' W 122°23'0 0.1
2017-Dec-13 05:30N 47°38' W 122°23'0 0.0
2017-Dec-13 04:58N 47°38' W 122°23'0 0.0
2017-Dec-13 04:28N 47°38' W 122°23'0 0.0
2017-Dec-13 03:58N 47°38' W 122°23'0 0.0
2017-Dec-13 03:28N 47°38' W 122°23'0 0.0
2017-Dec-13 02:58N 47°38' W 122°23'0 0.0
2017-Dec-13 02:28N 47°38' W 122°23'0 0.0
2017-Dec-13 01:55N 47°38' W 122°23'0 0.0
2017-Dec-13 01:25N 47°38' W 122°23'0 0.0
2017-Dec-13 00:58N 47°38' W 122°23'0 0.0
2017-Dec-13 00:28N 47°38' W 122°23'0 0.0
2017-Dec-13 00:00N 47°38' W 122°23'0 0.0
2017-Dec-12 23:30N 47°38' W 122°23'0 0.0
2017-Dec-12 23:00N 47°38' W 122°23'0 0.0
2017-Dec-12 22:30N 47°38' W 122°23'0 0.0
2017-Dec-12 22:00N 47°38' W 122°23'0 0.0
2017-Dec-12 21:30N 47°38' W 122°23'0 0.0
2017-Dec-12 21:00N 47°38' W 122°23'0 0.0
2017-Dec-12 20:30N 47°38' W 122°23'1 2.5
2017-Dec-12 20:00N 47°37' W 122°23'3 5.0
2017-Dec-12 19:30N 47°34' W 122°21'1 1.1
2017-Dec-12 19:01N 47°34' W 122°21'1 1.2
2017-Dec-12 18:31N 47°33' W 122°21'0 0.1
2017-Dec-12 18:00N 47°33' W 122°21'2 4.9
2017-Dec-12 17:30N 47°36' W 122°21'1 1.4
2017-Dec-12 17:00N 47°35' W 122°21'0 0.3
2017-Dec-12 16:31N 47°35' W 122°21'0 0.2
2017-Dec-12 16:00N 47°35' W 122°21'0 0.0
2017-Dec-12 15:28N 47°35' W 122°21'0 0.0
2017-Dec-12 14:58N 47°35' W 122°21'0 0.0
2017-Dec-12 14:28N 47°35' W 122°21'0 0.0
2017-Dec-12 13:58N 47°35' W 122°21'0 0.0
2017-Dec-12 13:28N 47°35' W 122°21'0 0.0
2017-Dec-12 12:58N 47°35' W 122°21'0 0.0
2017-Dec-12 12:28N 47°35' W 122°21'0 0.0
2017-Dec-12 11:58N 47°35' W 122°21'0 0.0
2017-Dec-12 11:25N 47°35' W 122°21'1 1.9
2017-Dec-12 11:00N 47°36' W 122°21'0 0.2
2017-Dec-12 10:30N 47°36' W 122°21'2 3.8
2017-Dec-12 10:00N 47°37' W 122°23'1 1.8
2017-Dec-12 09:30N 47°38' W 122°23'0 0.8
2017-Dec-12 08:58N 47°38' W 122°23'0 0.0
2017-Dec-12 08:28N 47°38' W 122°23'0 0.0
2017-Dec-12 08:00N 47°38' W 122°23'0 0.0
2017-Dec-12 07:29N 47°38' W 122°23'0 0.0
2017-Dec-12 07:00N 47°38' W 122°23'0 0.0
2017-Dec-12 06:28N 47°38' W 122°23'0 0.0
2017-Dec-12 05:58N 47°38' W 122°23'0 0.0
2017-Dec-12 05:28N 47°38' W 122°23'0 0.0
2017-Dec-12 04:58N 47°38' W 122°23'0 0.0
2017-Dec-12 04:28N 47°38' W 122°23'0 0.0
2017-Dec-12 03:58N 47°38' W 122°23'0 0.0
2017-Dec-12 03:28N 47°38' W 122°23'0 0.0
2017-Dec-12 02:58N 47°38' W 122°23'0 0.0
2017-Dec-12 02:25N 47°38' W 122°23'0 0.0
2017-Dec-12 01:58N 47°38' W 122°23'0 0.0
2017-Dec-12 01:28N 47°38' W 122°23'0 0.0
2017-Dec-12 00:59N 47°38' W 122°23'0 0.0
2017-Dec-12 00:29N 47°38' W 122°23'0 0.0
2017-Dec-11 23:59N 47°38' W 122°23'0 0.0
2017-Dec-11 23:28N 47°38' W 122°23'0 0.0
2017-Dec-11 22:58N 47°38' W 122°23'0 0.0
2017-Dec-11 22:28N 47°38' W 122°23'0 0.0
2017-Dec-11 21:58N 47°38' W 122°23'0 0.0
2017-Dec-11 21:29N 47°38' W 122°23'0 0.0
2017-Dec-11 20:58N 47°38' W 122°23'0 0.0
2017-Dec-11 20:29N 47°38' W 122°23'0 0.0
2017-Dec-11 19:58N 47°38' W 122°23'0 0.0
2017-Dec-11 19:28N 47°38' W 122°23'0 0.0
2017-Dec-11 18:58N 47°38' W 122°23'0 0.0
2017-Dec-11 18:28N 47°38' W 122°23'0 0.0
2017-Dec-11 17:58N 47°38' W 122°23'0 0.0
2017-Dec-11 17:28N 47°38' W 122°23'0 0.0
2017-Dec-11 16:58N 47°38' W 122°23'0 0.0
2017-Dec-11 16:28N 47°38' W 122°23'0 0.0
2017-Dec-11 15:58N 47°38' W 122°23'0 0.0
2017-Dec-11 15:28N 47°38' W 122°23'0 0.0
2017-Dec-11 14:58N 47°38' W 122°23'0 0.0
2017-Dec-11 14:28N 47°38' W 122°23'0 0.0
2017-Dec-11 13:59N 47°38' W 122°23'0 0.0
2017-Dec-11 13:28N 47°38' W 122°23'0 0.0
2017-Dec-11 12:58N 47°38' W 122°23'0 0.0
2017-Dec-11 12:25N 47°38' W 122°23'0 0.0
2017-Dec-11 11:58N 47°38' W 122°23'0 0.0
2017-Dec-11 11:28N 47°38' W 122°23'0 0.0
2017-Dec-11 10:58N 47°38' W 122°23'0 0.0
2017-Dec-11 10:29N 47°38' W 122°23'0 0.0
2017-Dec-11 10:00N 47°38' W 122°23'0 0.0
2017-Dec-11 09:28N 47°38' W 122°23'0 0.0
2017-Dec-11 08:58N 47°38' W 122°23'0 0.0
2017-Dec-11 08:28N 47°38' W 122°23'0 0.0
2017-Dec-11 07:58N 47°38' W 122°23'0 0.0
2017-Dec-11 07:29N 47°38' W 122°23'0 0.0
2017-Dec-11 06:58N 47°38' W 122°23'0 0.0
2017-Dec-11 06:28N 47°38' W 122°23'0 0.0
2017-Dec-11 05:59N 47°38' W 122°23'0 0.0
2017-Dec-11 05:28N 47°38' W 122°23'0 0.0
2017-Dec-11 04:59N 47°38' W 122°23'0 0.0
2017-Dec-11 04:28N 47°38' W 122°23'0 0.0
2017-Dec-11 03:59N 47°38' W 122°23'0 0.0
2017-Dec-11 03:28N 47°38' W 122°23'0 0.0
2017-Dec-11 02:58N 47°38' W 122°23'0 0.0
2017-Dec-11 02:28N 47°38' W 122°23'0 0.0
2017-Dec-11 01:58N 47°38' W 122°23'0 0.0
2017-Dec-11 01:25N 47°38' W 122°23'0 0.0
2017-Dec-11 00:59N 47°38' W 122°23'0 0.0
2017-Dec-11 00:25N 47°38' W 122°23'0 0.0
2017-Dec-10 23:58N 47°38' W 122°23'0 0.0
2017-Dec-10 23:28N 47°38' W 122°23'0 0.0
2017-Dec-10 22:58N 47°38' W 122°23'0 0.0
2017-Dec-10 22:29N 47°38' W 122°23'0 0.0
2017-Dec-10 21:58N 47°38' W 122°23'0 0.0
2017-Dec-10 21:30N 47°38' W 122°23'0 0.0
2017-Dec-10 21:00N 47°38' W 122°23'0 0.0
2017-Dec-10 20:30N 47°38' W 122°23'0 0.0
2017-Dec-10 20:00N 47°38' W 122°23'0 0.0
2017-Dec-10 19:30N 47°38' W 122°23'0 0.0
2017-Dec-10 19:00N 47°38' W 122°23'0 0.0
2017-Dec-10 18:30N 47°38' W 122°23'0 0.0
2017-Dec-10 18:00N 47°38' W 122°23'0 0.0
2017-Dec-10 17:30N 47°38' W 122°23'0 0.0
2017-Dec-10 17:00N 47°38' W 122°23'0 0.0
2017-Dec-10 16:30N 47°38' W 122°23'0 0.0
2017-Dec-10 16:00N 47°38' W 122°23'0 0.0
2017-Dec-10 15:30N 47°38' W 122°23'1 1.5
2017-Dec-10 15:00N 47°37' W 122°22'2 4.2
2017-Dec-10 14:30N 47°35' W 122°21'0 0.6
2017-Dec-10 14:01N 47°35' W 122°21'1 2.2
2017-Dec-10 13:30N 47°36' W 122°21'1 1.5
2017-Dec-10 13:00N 47°37' W 122°22'1 1.5
2017-Dec-10 12:30N 47°36' W 122°21'0 0.8
2017-Dec-10 12:00N 47°36' W 122°20'0 0.0
2017-Dec-10 11:30N 47°36' W 122°20'0 0.7
2017-Dec-10 11:00N 47°36' W 122°21'0 0.1
2017-Dec-10 10:30N 47°36' W 122°21'2 4.1
2017-Dec-10 10:00N 47°37' W 122°22'1 1.4
2017-Dec-10 09:30N 47°38' W 122°23'0 0.0
2017-Dec-10 09:00N 47°38' W 122°23'0 0.0
2017-Dec-10 08:30N 47°38' W 122°23'0 0.0
2017-Dec-10 08:00N 47°38' W 122°23'0 0.0
2017-Dec-10 07:30N 47°38' W 122°23'0 0.0
2017-Dec-10 07:00N 47°38' W 122°23'0 0.0
2017-Dec-10 06:30N 47°38' W 122°23'0 0.0
2017-Dec-10 06:00N 47°38' W 122°23'0 0.0
2017-Dec-10 05:30N 47°38' W 122°23'0 0.0
2017-Dec-10 05:00N 47°38' W 122°23'0 0.0
2017-Dec-10 04:30N 47°38' W 122°23'0 0.0
2017-Dec-10 04:00N 47°38' W 122°23'0 0.0
2017-Dec-10 03:30N 47°38' W 122°23'0 0.0
2017-Dec-10 03:00N 47°38' W 122°23'0 0.0
2017-Dec-10 02:30N 47°38' W 122°23'0 0.0
2017-Dec-10 02:00N 47°38' W 122°23'0 0.0
2017-Dec-10 01:30N 47°38' W 122°23'0 0.0
2017-Dec-10 01:00N 47°38' W 122°23'0 0.0
2017-Dec-10 00:30N 47°38' W 122°23'0 0.0
2017-Dec-10 00:00N 47°38' W 122°23'0 0.0
2017-Dec-09 23:30N 47°38' W 122°23'0 0.0
2017-Dec-09 23:00N 47°38' W 122°23'0 0.0
2017-Dec-09 22:30N 47°38' W 122°23'0 0.0
2017-Dec-09 22:00N 47°38' W 122°23'0 0.0
2017-Dec-09 21:30N 47°38' W 122°23'0 0.0
2017-Dec-09 21:00N 47°38' W 122°23'0 0.0
2017-Dec-09 20:30N 47°38' W 122°23'0 0.0
2017-Dec-09 20:00N 47°38' W 122°23'0 0.0
2017-Dec-09 19:30N 47°38' W 122°23'0 0.0
2017-Dec-09 19:00N 47°38' W 122°23'0 0.0
2017-Dec-09 18:30N 47°38' W 122°23'0 0.0
2017-Dec-09 18:00N 47°38' W 122°23'3 5.0
2017-Dec-09 17:31N 47°36' W 122°20'1 1.1
2017-Dec-09 17:00N 47°36' W 122°21'0 0.1
2017-Dec-09 16:30N 47°36' W 122°21'0 0.0
2017-Dec-09 16:00N 47°36' W 122°21'1 1.2
2017-Dec-09 15:30N 47°36' W 122°20'0 0.9
2017-Dec-09 15:00N 47°36' W 122°21'2 4.2
2017-Dec-09 14:30N 47°38' W 122°23'0 0.0
2017-Dec-09 14:00N 47°38' W 122°23'0 0.0
2017-Dec-09 13:30N 47°38' W 122°23'0 0.0
2017-Dec-09 13:00N 47°38' W 122°23'0 0.0
2017-Dec-09 12:30N 47°38' W 122°23'0 0.0
2017-Dec-09 12:00N 47°38' W 122°23'0 0.0
2017-Dec-09 11:30N 47°38' W 122°23'0 0.0
2017-Dec-09 11:00N 47°38' W 122°23'0 0.0
2017-Dec-09 10:30N 47°38' W 122°23'0 0.0
2017-Dec-09 10:00N 47°38' W 122°23'0 0.0
2017-Dec-09 09:30N 47°38' W 122°23'0 0.0
2017-Dec-09 09:00N 47°38' W 122°23'0 0.0
2017-Dec-09 08:30N 47°38' W 122°23'0 0.0
2017-Dec-09 08:00N 47°38' W 122°23'0 0.0
2017-Dec-09 07:30N 47°38' W 122°23'0 0.0
2017-Dec-09 07:00N 47°38' W 122°23'0 0.0
2017-Dec-09 06:30N 47°38' W 122°23'0 0.0
2017-Dec-09 06:00N 47°38' W 122°23'0 0.0
2017-Dec-09 05:30N 47°38' W 122°23'0 0.0
2017-Dec-09 05:00N 47°38' W 122°23'0 0.0
2017-Dec-09 04:30N 47°38' W 122°23'0 0.0
2017-Dec-09 04:00N 47°38' W 122°23'0 0.0
2017-Dec-09 03:30N 47°38' W 122°23'0 0.0
2017-Dec-09 03:00N 47°38' W 122°23'0 0.0
2017-Dec-09 02:30N 47°38' W 122°23'0 0.0
2017-Dec-09 02:00N 47°38' W 122°23'0 0.0
2017-Dec-09 01:30N 47°38' W 122°23'0 0.0
2017-Dec-09 01:00N 47°38' W 122°23'0 0.0
2017-Dec-09 00:30N 47°38' W 122°23'0 0.0
2017-Dec-09 00:00N 47°38' W 122°23'0 0.0
2017-Dec-08 23:30N 47°38' W 122°23'0 0.0
2017-Dec-08 23:00N 47°38' W 122°23'0 0.0
2017-Dec-08 22:30N 47°38' W 122°23'0 0.0
2017-Dec-08 22:00N 47°38' W 122°23'0 0.0
2017-Dec-08 21:30N 47°38' W 122°23'0 0.0
2017-Dec-08 21:00N 47°38' W 122°23'0 0.0
2017-Dec-08 20:30N 47°38' W 122°23'0 0.0
2017-Dec-08 20:00N 47°38' W 122°23'0 0.0
2017-Dec-08 19:30N 47°38' W 122°23'0 0.0
2017-Dec-08 19:01N 47°38' W 122°23'0 0.0
2017-Dec-08 18:30N 47°38' W 122°23'0 0.0
2017-Dec-08 18:00N 47°38' W 122°23'0 0.0
2017-Dec-08 17:30N 47°38' W 122°23'0 0.0
2017-Dec-08 17:00N 47°38' W 122°23'0 0.0
2017-Dec-08 16:31N 47°38' W 122°23'0 0.0
2017-Dec-08 16:00N 47°38' W 122°23'0 0.0
2017-Dec-08 15:30N 47°38' W 122°23'1 1.3
2017-Dec-08 15:00N 47°37' W 122°22'0 0.0
2017-Dec-08 14:30N 47°37' W 122°22'0 0.1
2017-Dec-08 14:00N 47°37' W 122°22'2 4.1
2017-Dec-08 13:30N 47°35' W 122°21'0 0.9
2017-Dec-08 13:00N 47°35' W 122°21'1 1.0
2017-Dec-08 12:30N 47°36' W 122°21'0 0.2
2017-Dec-08 12:00N 47°36' W 122°21'1 1.0
2017-Dec-08 11:30N 47°36' W 122°21'1 2.0
2017-Dec-08 11:00N 47°37' W 122°22'1 1.4
2017-Dec-08 10:31N 47°37' W 122°22'0 0.1
2017-Dec-08 10:00N 47°37' W 122°22'0 0.2
2017-Dec-08 09:30N 47°37' W 122°22'0 0.2
2017-Dec-08 09:00N 47°37' W 122°22'0 0.4
2017-Dec-08 08:30N 47°37' W 122°22'1 1.1
2017-Dec-08 08:00N 47°38' W 122°23'0 0.0
2017-Dec-08 07:30N 47°38' W 122°23'0 0.0
2017-Dec-08 07:00N 47°38' W 122°23'  
Track history (hours):
 
Tides and Currents Weather Stations Pressure Air Temp Water Temp Dewpoint Dewpoint Depression Visibility Wind Speed Wind Dir Waves Ship Positions

Marshall Foss

Owner: Foss Maritime Company, Seattle, WA. More information available from US FCC via Universal Licensing System and Coast Guard Vessel Documentation Center.

Last reported at 2017-Dec-18 06:49 UTC. Time now 2017-Dec-18 07:15 UTC.
Position N 48°08' W 123°27'.

Length 27 m; draft 5.4 m.

Type: Tug. MMSI: 366982320.

Date/timePositionNaut miles runAvg speedWind from/ knotsBaromVisibWave heightAir tempDewpointWater temp
2017-Dec-18 06:49N 48°08' W 123°27'0 0.0
2017-Dec-18 06:19N 48°08' W 123°27'0 0.0
2017-Dec-18 05:55N 48°08' W 123°27'0 0.0
2017-Dec-18 05:25N 48°08' W 123°27'0 0.0
2017-Dec-18 04:49N 48°08' W 123°27'1 2.1
2017-Dec-18 04:30N 48°08' W 123°26'1 1.4
2017-Dec-18 04:00N 48°08' W 123°27'1 1.4
2017-Dec-18 03:30N 48°08' W 123°26'2 3.3
2017-Dec-18 03:00N 48°09' W 123°24'2 3.9
2017-Dec-18 02:30N 48°10' W 123°26'2 4.7
2017-Dec-18 02:00N 48°08' W 123°24'2 3.3
2017-Dec-18 01:28N 48°08' W 123°27'0 0.0
2017-Dec-18 00:52N 48°08' W 123°27'0 0.0
2017-Dec-18 00:28N 48°08' W 123°27'0 0.0
2017-Dec-17 23:59N 48°08' W 123°27'3 5.4
2017-Dec-17 23:30N 48°09' W 123°23'5 9.8
2017-Dec-17 23:00N 48°11' W 123°17'5 9.9
2017-Dec-17 22:30N 48°14' W 123°11'5 9.7
2017-Dec-17 21:59N 48°18' W 123°05'5 9.5
2017-Dec-17 21:25N 48°21' W 122°58'4 9.1
2017-Dec-17 21:00N 48°23' W 122°53'6 9.6
2017-Dec-17 20:24N 48°26' W 122°47'5 9.7
2017-Dec-17 19:56N 48°30' W 122°45'410.3
2017-Dec-17 19:30N 48°35' W 122°46'510.9
2017-Dec-17 19:01N 48°40' W 122°43'8 2.9
2017-Dec-17 16:25N 48°47' W 122°45'410.2
2017-Dec-17 16:00N 48°43' W 122°45'5 9.4
2017-Dec-17 15:30N 48°39' W 122°43'5 9.0
2017-Dec-17 15:00N 48°34' W 122°45'510.4
2017-Dec-17 14:29N 48°29' W 122°44'2010.6
2017-Dec-17 12:34N 48°15' W 123°07'1 9.1
2017-Dec-17 12:31N 48°15' W 123°06'1 2.4
2017-Dec-17 11:56N 48°15' W 123°04'26 8.5
2017-Dec-17 08:50N 47°58' W 122°34'3 9.8
2017-Dec-17 08:30N 47°56' W 122°30'5 9.8
2017-Dec-17 08:00N 47°52' W 122°27'510.4
2017-Dec-17 07:30N 47°47' W 122°26'510.2
2017-Dec-17 07:00N 47°42' W 122°27'4 8.9
2017-Dec-17 06:30N 47°38' W 122°24'1 1.5
2017-Dec-17 06:00N 47°38' W 122°23'0 0.0
2017-Dec-17 05:30N 47°38' W 122°23'0 0.0
2017-Dec-17 05:00N 47°38' W 122°23'0 0.0
2017-Dec-17 04:30N 47°38' W 122°23'0 0.0
2017-Dec-17 04:00N 47°38' W 122°23'0 0.0
2017-Dec-17 03:31N 47°38' W 122°23'0 0.0
2017-Dec-17 03:00N 47°38' W 122°23'0 0.0
2017-Dec-17 02:30N 47°38' W 122°23'0 0.0
2017-Dec-17 02:00N 47°38' W 122°23'0 0.0
2017-Dec-17 01:30N 47°38' W 122°23'0 0.0
2017-Dec-17 01:00N 47°38' W 122°23'0 0.0
2017-Dec-17 00:30N 47°38' W 122°23'0 0.0
2017-Dec-17 00:00N 47°38' W 122°23'0 0.2
2017-Dec-16 23:30N 47°38' W 122°23'3 6.5
2017-Dec-16 23:00N 47°35' W 122°21'0 0.8
2017-Dec-16 22:30N 47°35' W 122°21'1 2.6
2017-Dec-16 22:01N 47°37' W 122°21'0 0.2
2017-Dec-16 21:31N 47°37' W 122°22'2 4.4
2017-Dec-16 21:00N 47°34' W 122°21'1 1.2
2017-Dec-16 20:30N 47°34' W 122°21'0 0.5
2017-Dec-16 20:00N 47°34' W 122°21'1 1.7
2017-Dec-16 19:30N 47°35' W 122°22'1 2.3
2017-Dec-16 19:00N 47°36' W 122°21'0 0.2
2017-Dec-16 18:30N 47°36' W 122°21'1 1.8
2017-Dec-16 18:00N 47°35' W 122°22'0 0.0
2017-Dec-16 17:30N 47°35' W 122°22'0 0.1
2017-Dec-16 16:59N 47°35' W 122°23'0 0.2
2017-Dec-16 16:30N 47°36' W 122°23'4 8.7
2017-Dec-16 16:00N 47°39' W 122°27'5 9.2
2017-Dec-16 15:30N 47°43' W 122°28'5 9.8
2017-Dec-16 15:00N 47°48' W 122°28'510.0
2017-Dec-16 14:30N 47°53' W 122°30'5 9.3
2017-Dec-16 14:00N 47°57' W 122°34'31 8.3
2017-Dec-16 10:17N 48°10' W 123°16'310.4
2017-Dec-16 09:58N 48°09' W 123°21'2 5.1
2017-Dec-16 09:30N 48°08' W 123°24'1 1.9
2017-Dec-16 09:00N 48°08' W 123°23'1 2.8
2017-Dec-16 08:30N 48°09' W 123°23'1 2.1
2017-Dec-16 08:00N 48°08' W 123°24'1 1.2
2017-Dec-16 07:30N 48°08' W 123°24'1 2.8
2017-Dec-16 07:00N 48°08' W 123°26'1 1.2
2017-Dec-16 06:30N 48°08' W 123°26'0 0.0
2017-Dec-16 06:00N 48°08' W 123°26'0 0.0
2017-Dec-16 05:30N 48°08' W 123°26'0 0.0
2017-Dec-16 04:55N 48°08' W 123°26'0 0.0
2017-Dec-16 04:30N 48°08' W 123°26'0 0.0
2017-Dec-16 04:00N 48°08' W 123°26'0 0.0
2017-Dec-16 03:29N 48°08' W 123°26'0 0.0
2017-Dec-16 03:00N 48°08' W 123°26'0 0.0
2017-Dec-16 02:30N 48°08' W 123°26'0 0.0
2017-Dec-16 02:00N 48°08' W 123°26'0 0.0
2017-Dec-16 01:28N 48°08' W 123°26'0 0.0
2017-Dec-16 01:00N 48°08' W 123°26'0 0.0
2017-Dec-16 00:30N 48°08' W 123°26'0 0.0
2017-Dec-16 00:00N 48°08' W 123°26'0 0.0
2017-Dec-15 23:30N 48°08' W 123°26'0 0.0
2017-Dec-15 23:00N 48°08' W 123°26'0 0.0
2017-Dec-15 22:30N 48°08' W 123°26'0 0.0
2017-Dec-15 22:00N 48°08' W 123°26'0 0.0
2017-Dec-15 21:30N 48°08' W 123°26'0 0.0
2017-Dec-15 21:00N 48°08' W 123°26'3 6.9
2017-Dec-15 20:30N 48°09' W 123°22'5 9.4
2017-Dec-15 20:00N 48°12' W 123°16'5 9.8
2017-Dec-15 19:30N 48°15' W 123°11'510.1
2017-Dec-15 19:00N 48°18' W 123°05'811.8
2017-Dec-15 18:18N 48°22' W 122°54'311.6
2017-Dec-15 18:00N 48°24' W 122°50'5 9.0
2017-Dec-15 17:30N 48°28' W 122°45'5 9.3
2017-Dec-15 17:00N 48°31' W 122°41'4 8.4
2017-Dec-15 16:30N 48°31' W 122°34'0 0.8
2017-Dec-15 16:00N 48°31' W 122°34'1 1.4
2017-Dec-15 15:30N 48°31' W 122°35'1 2.2
2017-Dec-15 15:00N 48°31' W 122°37'0 0.0
2017-Dec-15 14:25N 48°31' W 122°37'0 0.0
2017-Dec-15 13:55N 48°31' W 122°37'0 0.0
2017-Dec-15 13:25N 48°31' W 122°37'0 0.0
2017-Dec-15 12:55N 48°31' W 122°37'0 0.2
2017-Dec-15 12:30N 48°31' W 122°37'1 1.9
2017-Dec-15 12:00N 48°31' W 122°35'1 1.3
2017-Dec-15 11:30N 48°31' W 122°35'0 0.9
2017-Dec-15 11:00N 48°31' W 122°35'1 1.7
2017-Dec-15 10:23N 48°31' W 122°37'0 0.0
2017-Dec-15 09:59N 48°31' W 122°37'0 0.0
2017-Dec-15 09:29N 48°31' W 122°37'0 0.0
2017-Dec-15 08:59N 48°31' W 122°37'0 0.0
2017-Dec-15 08:23N 48°31' W 122°37'0 0.0
2017-Dec-15 07:59N 48°31' W 122°37'0 0.0
2017-Dec-15 07:29N 48°31' W 122°37'0 0.0
2017-Dec-15 06:59N 48°31' W 122°37'0 0.0
2017-Dec-15 06:29N 48°31' W 122°37'0 0.0
2017-Dec-15 05:59N 48°31' W 122°37'0 0.0
2017-Dec-15 05:29N 48°31' W 122°37'0 0.0
2017-Dec-15 04:53N 48°31' W 122°37'0 0.0
2017-Dec-15 04:29N 48°31' W 122°37'0 0.0
2017-Dec-15 03:59N 48°31' W 122°37'0 0.0
2017-Dec-15 02:29N 48°31' W 122°37'0 0.0
2017-Dec-15 00:59N 48°31' W 122°37'0 0.0
2017-Dec-15 00:29N 48°31' W 122°37'0 0.0
2017-Dec-14 18:23N 48°31' W 122°37'0 0.0
2017-Dec-14 17:59N 48°31' W 122°37'0 0.2
2017-Dec-14 17:31N 48°31' W 122°37'1 3.0
2017-Dec-14 17:00N 48°31' W 122°35'0 0.2
2017-Dec-14 16:30N 48°31' W 122°35'0 0.4
2017-Dec-14 16:00N 48°31' W 122°34'2 1.8
2017-Dec-14 15:00N 48°31' W 122°37'0 0.7
2017-Dec-14 14:31N 48°31' W 122°37'3 6.7
2017-Dec-14 14:00N 48°31' W 122°42'5 9.2
2017-Dec-14 13:30N 48°26' W 122°44'510.2
2017-Dec-14 13:00N 48°21' W 122°45'810.3
2017-Dec-14 12:15N 48°14' W 122°48'1810.1
2017-Dec-14 10:32N 47°59' W 122°35'1 9.9
2017-Dec-14 10:26N 47°58' W 122°34'410.4
2017-Dec-14 10:00N 47°54' W 122°30'510.5
2017-Dec-14 09:30N 47°50' W 122°27'510.1
2017-Dec-14 09:00N 47°45' W 122°26'510.2
2017-Dec-14 08:30N 47°39' W 122°27'3 6.7
2017-Dec-14 08:00N 47°38' W 122°23'0 0.1
2017-Dec-14 07:31N 47°38' W 122°23'0 0.0
2017-Dec-14 07:00N 47°38' W 122°23'0 0.0
2017-Dec-14 06:30N 47°38' W 122°23'0 0.0
2017-Dec-14 06:00N 47°38' W 122°23'0 0.0
2017-Dec-14 05:30N 47°38' W 122°23'0 0.0
2017-Dec-14 05:00N 47°38' W 122°23'0 0.0
2017-Dec-14 04:30N 47°38' W 122°23'0 0.0
2017-Dec-14 04:00N 47°38' W 122°23'0 0.0
2017-Dec-14 03:30N 47°38' W 122°23'0 0.0
2017-Dec-14 03:00N 47°38' W 122°23'0 0.0
2017-Dec-14 02:30N 47°38' W 122°23'1 1.6
2017-Dec-14 02:00N 47°37' W 122°22'2 4.1
2017-Dec-14 01:30N 47°35' W 122°21'0 0.1
2017-Dec-14 01:01N 47°36' W 122°21'1 1.4
2017-Dec-14 00:30N 47°35' W 122°21'0 0.0
2017-Dec-14 00:00N 47°35' W 122°21'0 0.0
2017-Dec-13 23:30N 47°35' W 122°21'0 0.3
2017-Dec-13 23:00N 47°35' W 122°21'1 1.2
2017-Dec-13 22:31N 47°35' W 122°21'0 0.5
2017-Dec-13 22:00N 47°36' W 122°21'1 2.0
2017-Dec-13 21:31N 47°36' W 122°22'1 1.0
2017-Dec-13 21:01N 47°36' W 122°23'2 3.8
2017-Dec-13 20:29N 47°38' W 122°23'0 0.0
2017-Dec-13 19:59N 47°38' W 122°23'0 0.0
2017-Dec-13 19:29N 47°38' W 122°23'0 0.0
2017-Dec-13 18:59N 47°38' W 122°23'0 0.0
2017-Dec-13 18:29N 47°38' W 122°23'0 0.0
2017-Dec-13 17:59N 47°38' W 122°23'0 0.0
2017-Dec-13 17:29N 47°38' W 122°23'0 0.0
2017-Dec-13 17:00N 47°38' W 122°23'0 0.0
2017-Dec-13 16:29N 47°38' W 122°23'0 0.0
2017-Dec-13 16:01N 47°38' W 122°23'0 0.0
2017-Dec-13 15:30N 47°38' W 122°23'0 0.0
2017-Dec-13 15:00N 47°38' W 122°23'0 0.0
2017-Dec-13 14:31N 47°38' W 122°23'0 0.0
2017-Dec-13 14:00N 47°38' W 122°23'0 0.0
2017-Dec-13 13:30N 47°38' W 122°23'0 0.0
2017-Dec-13 13:00N 47°38' W 122°23'0 0.0
2017-Dec-13 12:30N 47°38' W 122°23'0 0.0
2017-Dec-13 12:00N 47°38' W 122°23'0 0.0
2017-Dec-13 11:30N 47°38' W 122°23'0 0.0
2017-Dec-13 11:00N 47°38' W 122°23'0 0.0
2017-Dec-13 10:30N 47°38' W 122°23'0 0.0
2017-Dec-13 10:00N 47°38' W 122°23'0 0.0
2017-Dec-13 09:30N 47°38' W 122°23'0 0.0
2017-Dec-13 09:00N 47°38' W 122°23'0 0.0
2017-Dec-13 08:31N 47°38' W 122°23'1 1.3
2017-Dec-13 08:00N 47°37' W 122°22'2 3.5
2017-Dec-13 07:30N 47°36' W 122°21'1 1.0
2017-Dec-13 07:00N 47°35' W 122°21'0 0.0
2017-Dec-13 06:30N 47°35' W 122°21'3 5.7
2017-Dec-13 06:01N 47°38' W 122°23'0 0.1
2017-Dec-13 05:30N 47°38' W 122°23'0 0.0
2017-Dec-13 04:58N 47°38' W 122°23'0 0.0
2017-Dec-13 04:28N 47°38' W 122°23'0 0.0
2017-Dec-13 03:58N 47°38' W 122°23'0 0.0
2017-Dec-13 03:28N 47°38' W 122°23'0 0.0
2017-Dec-13 02:58N 47°38' W 122°23'0 0.0
2017-Dec-13 02:28N 47°38' W 122°23'0 0.0
2017-Dec-13 01:55N 47°38' W 122°23'0 0.0
2017-Dec-13 01:25N 47°38' W 122°23'0 0.0
2017-Dec-13 00:58N 47°38' W 122°23'0 0.0
2017-Dec-13 00:28N 47°38' W 122°23'0 0.0
2017-Dec-13 00:00N 47°38' W 122°23'0 0.0
2017-Dec-12 23:30N 47°38' W 122°23'0 0.0
2017-Dec-12 23:00N 47°38' W 122°23'0 0.0
2017-Dec-12 22:30N 47°38' W 122°23'0 0.0
2017-Dec-12 22:00N 47°38' W 122°23'0 0.0
2017-Dec-12 21:30N 47°38' W 122°23'0 0.0
2017-Dec-12 21:00N 47°38' W 122°23'0 0.0
2017-Dec-12 20:30N 47°38' W 122°23'1 2.5
2017-Dec-12 20:00N 47°37' W 122°23'3 5.0
2017-Dec-12 19:30N 47°34' W 122°21'1 1.1
2017-Dec-12 19:01N 47°34' W 122°21'1 1.2
2017-Dec-12 18:31N 47°33' W 122°21'0 0.1
2017-Dec-12 18:00N 47°33' W 122°21'2 4.9
2017-Dec-12 17:30N 47°36' W 122°21'1 1.4
2017-Dec-12 17:00N 47°35' W 122°21'0 0.3
2017-Dec-12 16:31N 47°35' W 122°21'0 0.2
2017-Dec-12 16:00N 47°35' W 122°21'0 0.0
2017-Dec-12 15:28N 47°35' W 122°21'0 0.0
2017-Dec-12 14:58N 47°35' W 122°21'0 0.0
2017-Dec-12 14:28N 47°35' W 122°21'0 0.0
2017-Dec-12 13:58N 47°35' W 122°21'0 0.0
2017-Dec-12 13:28N 47°35' W 122°21'0 0.0
2017-Dec-12 12:58N 47°35' W 122°21'0 0.0
2017-Dec-12 12:28N 47°35' W 122°21'0 0.0
2017-Dec-12 11:58N 47°35' W 122°21'0 0.0
2017-Dec-12 11:25N 47°35' W 122°21'1 1.9
2017-Dec-12 11:00N 47°36' W 122°21'0 0.2
2017-Dec-12 10:30N 47°36' W 122°21'2 3.8
2017-Dec-12 10:00N 47°37' W 122°23'1 1.8
2017-Dec-12 09:30N 47°38' W 122°23'0 0.8
2017-Dec-12 08:58N 47°38' W 122°23'0 0.0
2017-Dec-12 08:28N 47°38' W 122°23'0 0.0
2017-Dec-12 08:00N 47°38' W 122°23'0 0.0
2017-Dec-12 07:29N 47°38' W 122°23'0 0.0
2017-Dec-12 07:00N 47°38' W 122°23'0 0.0
2017-Dec-12 06:28N 47°38' W 122°23'0 0.0
2017-Dec-12 05:58N 47°38' W 122°23'0 0.0
2017-Dec-12 05:28N 47°38' W 122°23'0 0.0
2017-Dec-12 04:58N 47°38' W 122°23'0 0.0
2017-Dec-12 04:28N 47°38' W 122°23'0 0.0
2017-Dec-12 03:58N 47°38' W 122°23'0 0.0
2017-Dec-12 03:28N 47°38' W 122°23'0 0.0
2017-Dec-12 02:58N 47°38' W 122°23'0 0.0
2017-Dec-12 02:25N 47°38' W 122°23'0 0.0
2017-Dec-12 01:58N 47°38' W 122°23'0 0.0
2017-Dec-12 01:28N 47°38' W 122°23'0 0.0
2017-Dec-12 00:59N 47°38' W 122°23'0 0.0
2017-Dec-12 00:29N 47°38' W 122°23'0 0.0
2017-Dec-11 23:59N 47°38' W 122°23'0 0.0
2017-Dec-11 23:28N 47°38' W 122°23'0 0.0
2017-Dec-11 22:58N 47°38' W 122°23'0 0.0
2017-Dec-11 22:28N 47°38' W 122°23'0 0.0
2017-Dec-11 21:58N 47°38' W 122°23'0 0.0
2017-Dec-11 21:29N 47°38' W 122°23'0 0.0
2017-Dec-11 20:58N 47°38' W 122°23'0 0.0
2017-Dec-11 20:29N 47°38' W 122°23'0 0.0
2017-Dec-11 19:58N 47°38' W 122°23'0 0.0
2017-Dec-11 19:28N 47°38' W 122°23'0 0.0
2017-Dec-11 18:58N 47°38' W 122°23'0 0.0
2017-Dec-11 18:28N 47°38' W 122°23'0 0.0
2017-Dec-11 17:58N 47°38' W 122°23'0 0.0
2017-Dec-11 17:28N 47°38' W 122°23'0 0.0
2017-Dec-11 16:58N 47°38' W 122°23'0 0.0
2017-Dec-11 16:28N 47°38' W 122°23'0 0.0
2017-Dec-11 15:58N 47°38' W 122°23'0 0.0
2017-Dec-11 15:28N 47°38' W 122°23'0 0.0
2017-Dec-11 14:58N 47°38' W 122°23'0 0.0
2017-Dec-11 14:28N 47°38' W 122°23'0 0.0
2017-Dec-11 13:59N 47°38' W 122°23'0 0.0
2017-Dec-11 13:28N 47°38' W 122°23'0 0.0
2017-Dec-11 12:58N 47°38' W 122°23'0 0.0
2017-Dec-11 12:25N 47°38' W 122°23'0 0.0
2017-Dec-11 11:58N 47°38' W 122°23'0 0.0
2017-Dec-11 11:28N 47°38' W 122°23'0 0.0
2017-Dec-11 10:58N 47°38' W 122°23'0 0.0
2017-Dec-11 10:29N 47°38' W 122°23'0 0.0
2017-Dec-11 10:00N 47°38' W 122°23'0 0.0
2017-Dec-11 09:28N 47°38' W 122°23'0 0.0
2017-Dec-11 08:58N 47°38' W 122°23'0 0.0
2017-Dec-11 08:28N 47°38' W 122°23'0 0.0
2017-Dec-11 07:58N 47°38' W 122°23'0 0.0
2017-Dec-11 07:29N 47°38' W 122°23'0 0.0
2017-Dec-11 06:58N 47°38' W 122°23'0 0.0
2017-Dec-11 06:28N 47°38' W 122°23'0 0.0
2017-Dec-11 05:59N 47°38' W 122°23'0 0.0
2017-Dec-11 05:28N 47°38' W 122°23'0 0.0
2017-Dec-11 04:59N 47°38' W 122°23'0 0.0
2017-Dec-11 04:28N 47°38' W 122°23'0 0.0
2017-Dec-11 03:59N 47°38' W 122°23'0 0.0
2017-Dec-11 03:28N 47°38' W 122°23'0 0.0
2017-Dec-11 02:58N 47°38' W 122°23'0 0.0
2017-Dec-11 02:28N 47°38' W 122°23'0 0.0
2017-Dec-11 01:58N 47°38' W 122°23'0 0.0
2017-Dec-11 01:25N 47°38' W 122°23'0 0.0
2017-Dec-11 00:59N 47°38' W 122°23'0 0.0
2017-Dec-11 00:25N 47°38' W 122°23'0 0.0
2017-Dec-10 23:58N 47°38' W 122°23'0 0.0
2017-Dec-10 23:28N 47°38' W 122°23'0 0.0
2017-Dec-10 22:58N 47°38' W 122°23'0 0.0
2017-Dec-10 22:29N 47°38' W 122°23'0 0.0
2017-Dec-10 21:58N 47°38' W 122°23'0 0.0
2017-Dec-10 21:30N 47°38' W 122°23'0 0.0
2017-Dec-10 21:00N 47°38' W 122°23'0 0.0
2017-Dec-10 20:30N 47°38' W 122°23'0 0.0
2017-Dec-10 20:00N 47°38' W 122°23'0 0.0
2017-Dec-10 19:30N 47°38' W 122°23'0 0.0
2017-Dec-10 19:00N 47°38' W 122°23'0 0.0
2017-Dec-10 18:30N 47°38' W 122°23'0 0.0
2017-Dec-10 18:00N 47°38' W 122°23'0 0.0
2017-Dec-10 17:30N 47°38' W 122°23'0 0.0
2017-Dec-10 17:00N 47°38' W 122°23'0 0.0
2017-Dec-10 16:30N 47°38' W 122°23'0 0.0
2017-Dec-10 16:00N 47°38' W 122°23'0 0.0
2017-Dec-10 15:30N 47°38' W 122°23'1 1.5
2017-Dec-10 15:00N 47°37' W 122°22'2 4.2
2017-Dec-10 14:30N 47°35' W 122°21'0 0.6
2017-Dec-10 14:01N 47°35' W 122°21'1 2.2
2017-Dec-10 13:30N 47°36' W 122°21'1 1.5
2017-Dec-10 13:00N 47°37' W 122°22'1 1.5
2017-Dec-10 12:30N 47°36' W 122°21'0 0.8
2017-Dec-10 12:00N 47°36' W 122°20'0 0.0
2017-Dec-10 11:30N 47°36' W 122°20'0 0.7
2017-Dec-10 11:00N 47°36' W 122°21'0 0.1
2017-Dec-10 10:30N 47°36' W 122°21'2 4.1
2017-Dec-10 10:00N 47°37' W 122°22'1 1.4
2017-Dec-10 09:30N 47°38' W 122°23'0 0.0
2017-Dec-10 09:00N 47°38' W 122°23'0 0.0
2017-Dec-10 08:30N 47°38' W 122°23'0 0.0
2017-Dec-10 08:00N 47°38' W 122°23'0 0.0
2017-Dec-10 07:30N 47°38' W 122°23'0 0.0
2017-Dec-10 07:00N 47°38' W 122°23'0 0.0
2017-Dec-10 06:30N 47°38' W 122°23'0 0.0
2017-Dec-10 06:00N 47°38' W 122°23'0 0.0
2017-Dec-10 05:30N 47°38' W 122°23'0 0.0
2017-Dec-10 05:00N 47°38' W 122°23'0 0.0
2017-Dec-10 04:30N 47°38' W 122°23'0 0.0
2017-Dec-10 04:00N 47°38' W 122°23'0 0.0
2017-Dec-10 03:30N 47°38' W 122°23'0 0.0
2017-Dec-10 03:00N 47°38' W 122°23'0 0.0
2017-Dec-10 02:30N 47°38' W 122°23'0 0.0
2017-Dec-10 02:00N 47°38' W 122°23'0 0.0
2017-Dec-10 01:30N 47°38' W 122°23'0 0.0
2017-Dec-10 01:00N 47°38' W 122°23'0 0.0
2017-Dec-10 00:30N 47°38' W 122°23'0 0.0
2017-Dec-10 00:00N 47°38' W 122°23'0 0.0
2017-Dec-09 23:30N 47°38' W 122°23'0 0.0
2017-Dec-09 23:00N 47°38' W 122°23'0 0.0
2017-Dec-09 22:30N 47°38' W 122°23'0 0.0
2017-Dec-09 22:00N 47°38' W 122°23'0 0.0
2017-Dec-09 21:30N 47°38' W 122°23'0 0.0
2017-Dec-09 21:00N 47°38' W 122°23'0 0.0
2017-Dec-09 20:30N 47°38' W 122°23'0 0.0
2017-Dec-09 20:00N 47°38' W 122°23'0 0.0
2017-Dec-09 19:30N 47°38' W 122°23'0 0.0
2017-Dec-09 19:00N 47°38' W 122°23'0 0.0
2017-Dec-09 18:30N 47°38' W 122°23'0 0.0
2017-Dec-09 18:00N 47°38' W 122°23'3 5.0
2017-Dec-09 17:31N 47°36' W 122°20'1 1.1
2017-Dec-09 17:00N 47°36' W 122°21'0 0.1
2017-Dec-09 16:30N 47°36' W 122°21'0 0.0
2017-Dec-09 16:00N 47°36' W 122°21'1 1.2
2017-Dec-09 15:30N 47°36' W 122°20'0 0.9
2017-Dec-09 15:00N 47°36' W 122°21'2 4.2
2017-Dec-09 14:30N 47°38' W 122°23'0 0.0
2017-Dec-09 14:00N 47°38' W 122°23'0 0.0
2017-Dec-09 13:30N 47°38' W 122°23'0 0.0
2017-Dec-09 13:00N 47°38' W 122°23'0 0.0
2017-Dec-09 12:30N 47°38' W 122°23'0 0.0
2017-Dec-09 12:00N 47°38' W 122°23'0 0.0
2017-Dec-09 11:30N 47°38' W 122°23'0 0.0
2017-Dec-09 11:00N 47°38' W 122°23'0 0.0
2017-Dec-09 10:30N 47°38' W 122°23'0 0.0
2017-Dec-09 10:00N 47°38' W 122°23'0 0.0
2017-Dec-09 09:30N 47°38' W 122°23'0 0.0
2017-Dec-09 09:00N 47°38' W 122°23'0 0.0
2017-Dec-09 08:30N 47°38' W 122°23'0 0.0
2017-Dec-09 08:00N 47°38' W 122°23'0 0.0
2017-Dec-09 07:30N 47°38' W 122°23'0 0.0
2017-Dec-09 07:00N 47°38' W 122°23'0 0.0
2017-Dec-09 06:30N 47°38' W 122°23'0 0.0
2017-Dec-09 06:00N 47°38' W 122°23'0 0.0
2017-Dec-09 05:30N 47°38' W 122°23'0 0.0
2017-Dec-09 05:00N 47°38' W 122°23'0 0.0
2017-Dec-09 04:30N 47°38' W 122°23'0 0.0
2017-Dec-09 04:00N 47°38' W 122°23'0 0.0
2017-Dec-09 03:30N 47°38' W 122°23'0 0.0
2017-Dec-09 03:00N 47°38' W 122°23'0 0.0
2017-Dec-09 02:30N 47°38' W 122°23'0 0.0
2017-Dec-09 02:00N 47°38' W 122°23'0 0.0
2017-Dec-09 01:30N 47°38' W 122°23'0 0.0
2017-Dec-09 01:00N 47°38' W 122°23'0 0.0
2017-Dec-09 00:30N 47°38' W 122°23'0 0.0
2017-Dec-09 00:00N 47°38' W 122°23'0 0.0
2017-Dec-08 23:30N 47°38' W 122°23'0 0.0
2017-Dec-08 23:00N 47°38' W 122°23'0 0.0
2017-Dec-08 22:30N 47°38' W 122°23'0 0.0
2017-Dec-08 22:00N 47°38' W 122°23'0 0.0
2017-Dec-08 21:30N 47°38' W 122°23'0 0.0
2017-Dec-08 21:00N 47°38' W 122°23'0 0.0
2017-Dec-08 20:30N 47°38' W 122°23'0 0.0
2017-Dec-08 20:00N 47°38' W 122°23'0 0.0
2017-Dec-08 19:30N 47°38' W 122°23'0 0.0
2017-Dec-08 19:01N 47°38' W 122°23'0 0.0
2017-Dec-08 18:30N 47°38' W 122°23'0 0.0
2017-Dec-08 18:00N 47°38' W 122°23'0 0.0
2017-Dec-08 17:30N 47°38' W 122°23'0 0.0
2017-Dec-08 17:00N 47°38' W 122°23'0 0.0
2017-Dec-08 16:31N 47°38' W 122°23'0 0.0
2017-Dec-08 16:00N 47°38' W 122°23'0 0.0
2017-Dec-08 15:30N 47°38' W 122°23'1 1.3
2017-Dec-08 15:00N 47°37' W 122°22'0 0.0
2017-Dec-08 14:30N 47°37' W 122°22'0 0.1
2017-Dec-08 14:00N 47°37' W 122°22'2 4.1
2017-Dec-08 13:30N 47°35' W 122°21'0 0.9
2017-Dec-08 13:00N 47°35' W 122°21'1 1.0
2017-Dec-08 12:30N 47°36' W 122°21'0 0.2
2017-Dec-08 12:00N 47°36' W 122°21'1 1.0
2017-Dec-08 11:30N 47°36' W 122°21'1 2.0
2017-Dec-08 11:00N 47°37' W 122°22'1 1.4
2017-Dec-08 10:31N 47°37' W 122°22'0 0.1
2017-Dec-08 10:00N 47°37' W 122°22'0 0.2
2017-Dec-08 09:30N 47°37' W 122°22'0 0.2
2017-Dec-08 09:00N 47°37' W 122°22'0 0.4
2017-Dec-08 08:30N 47°37' W 122°22'1 1.1
2017-Dec-08 08:00N 47°38' W 122°23'0 0.0
2017-Dec-08 07:30N 47°38' W 122°23'0 0.0
2017-Dec-08 07:00N 47°38' W 122°23'  

Dump ship's entire track history